createdAt,value
2022-10-14T00:00:16.392Z,98274.53
2022-10-14T00:02:46.446Z,98266.25
2022-10-14T00:05:19.366Z,98279.84
2022-10-14T00:07:49.354Z,98274.53
2022-10-14T00:10:19.642Z,98267.84
2022-10-14T00:12:50.590Z,98267.47
2022-10-14T00:15:20.998Z,98265.88
2022-10-14T00:17:51.220Z,98264.28
2022-10-14T00:20:24.167Z,98269.22
2022-10-14T00:22:55.021Z,98264.31
2022-10-14T00:25:26.473Z,98265.09
2022-10-14T00:27:57.126Z,98267.06
2022-10-14T00:30:27.467Z,98265.28
2022-10-14T00:33:00.025Z,98266.66
2022-10-14T00:35:32.763Z,98270.19
2022-10-14T00:38:02.810Z,98275.31
2022-10-14T00:40:32.808Z,98268.63
2022-10-14T00:43:02.829Z,98270.59
2022-10-14T00:45:32.860Z,98269.03
2022-10-14T00:48:02.901Z,98274.13
2022-10-14T00:50:36.289Z,98271.78
2022-10-14T00:53:06.970Z,98282.38
2022-10-14T00:55:37.411Z,98278.66
2022-10-14T00:58:08.575Z,98280.44
2022-10-14T01:00:42.099Z,98277.88
2022-10-14T01:03:13.895Z,98270.78
2022-10-14T01:05:59.136Z,98272.97
2022-10-14T01:08:38.573Z,98271.19
2022-10-14T01:11:19.295Z,98270.19
2022-10-14T01:14:00.335Z,98266.06
2022-10-14T01:16:47.804Z,98268.25
2022-10-14T01:19:51.468Z,98261.34
2022-10-14T01:22:31.915Z,98265.88
2022-10-14T01:25:17.369Z,98265.69
2022-10-14T01:28:23.876Z,98261.56
2022-10-14T01:31:03.910Z,98255.44
2022-10-14T01:33:43.093Z,98259.97
2022-10-14T01:36:21.136Z,98252.50
2022-10-14T01:38:57.905Z,98252.88
2022-10-14T01:41:33.249Z,98242.28
2022-10-14T01:44:10.914Z,98244.25
2022-10-14T01:46:53.877Z,98245.03
2022-10-14T01:49:33.675Z,98241.50
2022-10-14T01:52:12.799Z,98244.44
2022-10-14T01:54:47.242Z,98242.09
2022-10-14T01:57:25.680Z,98237.19
2022-10-14T01:59:58.423Z,98241.91
2022-10-14T02:02:31.177Z,98245.81
2022-10-14T02:05:01.548Z,98249.16
2022-10-14T02:07:40.090Z,98247.00
2022-10-14T02:10:23.982Z,98247.78
2022-10-14T02:13:11.393Z,98245.03
2022-10-14T02:15:55.426Z,98243.06
2022-10-14T02:18:40.975Z,98248.38
2022-10-14T02:21:24.095Z,98252.50
2022-10-14T02:24:05.270Z,98244.84
2022-10-14T02:26:37.843Z,98246.00
2022-10-14T02:29:09.119Z,98246.81
2022-10-14T02:31:44.949Z,98252.88
2022-10-14T02:34:23.788Z,98250.94
2022-10-14T02:36:56.400Z,98259.59
2022-10-14T02:39:33.897Z,98250.75
2022-10-14T02:42:04.290Z,98238.94
2022-10-14T02:44:37.051Z,98237.56
2022-10-14T02:47:07.426Z,98234.00
2022-10-14T02:49:40.049Z,98232.44
2022-10-14T02:52:10.500Z,98227.09
2022-10-14T02:54:43.743Z,98226.91
2022-10-14T02:57:14.198Z,98229.06
2022-10-14T02:59:44.313Z,98228.66
2022-10-14T03:02:14.462Z,98216.28
2022-10-14T03:04:47.788Z,98215.88
2022-10-14T03:07:17.817Z,98208.03
2022-10-14T03:09:52.059Z,98195.81
2022-10-14T03:12:22.483Z,98198.38
2022-10-14T03:14:53.552Z,98195.03
2022-10-14T03:17:24.685Z,98194.84
2022-10-14T03:19:59.361Z,98183.25
2022-10-14T03:22:29.933Z,98180.50
2022-10-14T03:25:00.486Z,98174.59
2022-10-14T03:27:40.287Z,98178.75
2022-10-14T03:30:15.336Z,98181.69
2022-10-14T03:32:58.562Z,98177.19
2022-10-14T03:35:52.492Z,98182.50
2022-10-14T03:38:29.413Z,98180.16
2022-10-14T03:41:02.895Z,98173.44
2022-10-14T03:43:33.476Z,98173.25
2022-10-14T03:46:03.543Z,98165.22
2022-10-14T03:48:34.677Z,98156.13
2022-10-14T03:51:07.286Z,98162.03
2022-10-14T03:53:38.157Z,98156.13
2022-10-14T03:56:09.957Z,98155.34
2022-10-14T03:58:40.087Z,98150.84
2022-10-14T04:01:15.307Z,98144.75
2022-10-14T04:04:11.394Z,98142.41
2022-10-14T04:06:44.049Z,98140.47
2022-10-14T04:09:14.524Z,98137.09
2022-10-14T04:11:45.501Z,98140.47
2022-10-14T04:14:31.323Z,98135.34
2022-10-14T04:17:02.168Z,98134.38
2022-10-14T04:19:32.934Z,98126.69
2022-10-14T04:22:07.211Z,98127.88
2022-10-14T04:24:37.353Z,98127.88
2022-10-14T04:27:07.404Z,98123.53
2022-10-14T04:29:43.712Z,98123.34
2022-10-14T04:32:20.178Z,98124.72
2022-10-14T04:34:50.639Z,98128.47
2022-10-14T04:37:26.519Z,98122.38
2022-10-14T04:40:14.586Z,98128.47
2022-10-14T04:42:49.610Z,98116.25
2022-10-14T04:45:27.056Z,98115.03
2022-10-14T04:48:02.910Z,98114.84
2022-10-14T04:50:33.162Z,98114.09
2022-10-14T04:53:25.041Z,98101.94
2022-10-14T04:56:10.843Z,98105.47
2022-10-14T04:58:51.712Z,98108.00
2022-10-14T05:01:22.271Z,98105.03
2022-10-14T05:03:52.525Z,98100.53
2022-10-14T05:06:22.567Z,98102.50
2022-10-14T05:08:58.039Z,98099.94
2022-10-14T05:11:28.528Z,98094.25
2022-10-14T05:14:00.364Z,98095.22
2022-10-14T05:16:34.131Z,98097.16
2022-10-14T05:19:04.210Z,98092.25
2022-10-14T05:21:35.732Z,98097.59
2022-10-14T05:24:18.390Z,98096.97
2022-10-14T05:26:49.606Z,98085.50
2022-10-14T05:29:19.879Z,98084.31
2022-10-14T05:31:52.990Z,98082.59
2022-10-14T05:34:37.658Z,98077.50
2022-10-14T05:37:11.356Z,98069.81
2022-10-14T05:39:52.056Z,98080.63
2022-10-14T05:42:25.357Z,98071.97
2022-10-14T05:44:58.014Z,98065.47
2022-10-14T05:47:28.845Z,98069.91
2022-10-14T05:50:03.618Z,98064.84
2022-10-14T05:52:35.834Z,98065.44
2022-10-14T05:55:17.818Z,98066.50
2022-10-14T05:57:49.290Z,98064.72
2022-10-14T06:00:25.724Z,98064.69
2022-10-14T06:03:03.125Z,98069.63
2022-10-14T06:05:33.410Z,98067.06
2022-10-14T06:08:03.410Z,98070.41
2022-10-14T06:10:37.656Z,98069.00
2022-10-14T06:13:07.758Z,98065.22
2022-10-14T06:15:40.795Z,98067.38
2022-10-14T06:18:11.319Z,98054.97
2022-10-14T06:20:41.993Z,98059.09
2022-10-14T06:23:11.944Z,98062.69
2022-10-14T06:25:44.528Z,98063.84
2022-10-14T06:35:48.686Z,98077.94
2022-10-14T06:38:19.036Z,98074.16
2022-10-14T06:40:53.667Z,98080.41
2022-10-14T06:43:24.764Z,98078.19
2022-10-14T06:45:55.092Z,98068.13
2022-10-14T06:48:25.143Z,98079.91
2022-10-14T06:50:55.779Z,98074.06
2022-10-14T06:53:25.813Z,98070.16
2022-10-14T06:56:04.369Z,98070.66
2022-10-14T06:58:35.856Z,98068.03
2022-10-14T07:01:07.719Z,98073.06
2022-10-14T07:03:39.478Z,98070.53
2022-10-14T07:06:11.881Z,98065.25
2022-10-14T07:08:42.882Z,98069.63
2022-10-14T07:11:15.559Z,98067.63
2022-10-14T07:13:46.103Z,98073.50
2022-10-14T07:16:16.111Z,98075.41
2022-10-14T07:18:46.140Z,98069.06
2022-10-14T07:21:16.248Z,98070.94
2022-10-14T07:23:46.712Z,98069.44
2022-10-14T07:26:19.364Z,98074.66
2022-10-14T07:28:49.489Z,98075.16
2022-10-14T07:31:19.679Z,98063.09
2022-10-14T07:33:49.748Z,98076.16
2022-10-14T07:36:22.754Z,98068.78
2022-10-14T07:38:53.409Z,98072.38
2022-10-14T07:41:28.120Z,98070.63
2022-10-14T07:44:06.494Z,98078.72
2022-10-14T07:46:40.540Z,98075.34
2022-10-14T07:49:14.880Z,98077.75
2022-10-14T07:51:45.828Z,98079.66
2022-10-14T07:54:18.810Z,98084.72
2022-10-14T07:56:52.046Z,98084.53
2022-10-14T07:59:23.761Z,98081.63
2022-10-14T08:01:56.767Z,98084.97
2022-10-14T08:04:28.356Z,98088.53
2022-10-14T08:06:58.570Z,98075.75
2022-10-14T08:09:28.633Z,98077.63
2022-10-14T08:12:01.173Z,98079.75
2022-10-14T08:14:31.379Z,98072.13
2022-10-14T08:17:01.469Z,98072.59
2022-10-14T08:19:31.626Z,98069.50
2022-10-14T08:22:01.703Z,98063.81
2022-10-14T08:24:31.878Z,98064.50
2022-10-14T08:27:07.105Z,98062.06
2022-10-14T08:29:37.450Z,98068.56
2022-10-14T08:32:07.978Z,98065.75
2022-10-14T08:34:38.083Z,98065.09
2022-10-14T08:37:08.183Z,98067.66
2022-10-14T08:39:38.306Z,98067.50
2022-10-14T08:42:33.360Z,98058.88
2022-10-14T08:45:11.759Z,98053.38
2022-10-14T08:47:47.150Z,98056.91
2022-10-14T08:50:29.771Z,98060.72
2022-10-14T08:53:07.174Z,98055.72
2022-10-14T08:55:42.460Z,98063.13
2022-10-14T09:01:25.095Z,98054.34
2022-10-14T09:04:01.876Z,98057.44
2022-10-14T09:06:34.948Z,98056.91
2022-10-14T09:09:14.762Z,98052.63
2022-10-14T09:11:51.534Z,98049.19
2022-10-14T09:14:29.506Z,98054.75
2022-10-14T09:17:09.643Z,98046.56
2022-10-14T09:19:50.665Z,98048.44
2022-10-14T09:22:21.107Z,98046.63
2022-10-14T09:24:51.303Z,98044.06
2022-10-14T09:27:25.114Z,98037.94
2022-10-14T09:30:03.248Z,98036.91
2022-10-14T09:32:39.473Z,98035.03
2022-10-14T09:35:18.119Z,98033.16
2022-10-14T09:37:48.132Z,98033.66
2022-10-14T09:40:26.422Z,98031.78
2022-10-14T09:43:04.641Z,98035.81
2022-10-14T09:45:53.987Z,98032.44
2022-10-14T09:48:37.897Z,98031.28
2022-10-14T09:51:12.100Z,98030.41
2022-10-14T09:53:49.099Z,98020.72
2022-10-14T09:56:31.840Z,98025.91
2022-10-14T09:59:02.170Z,98019.75
2022-10-14T10:01:42.675Z,98018.25
2022-10-14T10:04:35.466Z,98009.97
2022-10-14T10:07:09.576Z,98009.19
2022-10-14T10:09:39.658Z,98004.78
2022-10-14T10:12:26.976Z,98005.03
2022-10-14T10:15:03.772Z,97995.72
2022-10-14T10:17:40.838Z,97997.53
2022-10-14T10:20:28.636Z,97992.09
2022-10-14T10:23:00.320Z,97987.81
2022-10-14T10:25:31.436Z,97984.44
2022-10-14T10:28:02.592Z,97982.72
2022-10-14T10:30:46.412Z,97976.75
2022-10-14T10:33:41.121Z,97970.09
2022-10-14T10:36:26.442Z,97965.91
2022-10-14T10:39:03.163Z,97963.81
2022-10-14T10:41:53.443Z,97959.13
2022-10-14T10:44:42.331Z,97956.31
2022-10-14T10:47:35.437Z,97953.03
2022-10-14T10:50:31.883Z,97954.09
2022-10-14T10:53:43.335Z,97943.34
2022-10-14T10:56:33.701Z,97932.66
2022-10-14T10:59:43.303Z,97936.38
2022-10-14T11:02:57.687Z,97926.91
2022-10-14T11:05:48.723Z,97924.88
2022-10-14T11:09:06.583Z,97921.28
2022-10-14T11:12:10.337Z,97919.19
2022-10-14T11:15:21.162Z,97920.75
2022-10-14T11:18:01.633Z,97920.19
2022-10-14T11:20:50.375Z,97910.84
2022-10-14T11:23:49.166Z,97905.38
2022-10-14T11:26:45.545Z,97907.44
2022-10-14T11:29:41.532Z,97904.63
2022-10-14T11:32:24.956Z,97902.63
2022-10-14T11:35:17.717Z,97906.50
2022-10-14T11:38:21.506Z,97903.16
2022-10-14T11:41:04.079Z,97903.72
2022-10-14T11:43:49.254Z,97898.09
2022-10-14T11:46:24.241Z,97897.75
2022-10-14T11:49:00.963Z,97892.97
2022-10-14T11:51:40.740Z,97892.69
2022-10-14T11:54:21.427Z,97889.44
2022-10-14T11:57:00.147Z,97895.75
2022-10-14T12:00:05.229Z,97888.53
2022-10-14T12:02:54.636Z,97886.47
2022-10-14T12:05:37.803Z,97880.22
2022-10-14T12:08:23.338Z,97873.97
2022-10-14T12:11:04.821Z,97873.63
2022-10-14T12:13:42.905Z,97863.56
2022-10-14T12:16:18.546Z,97864.91
2022-10-14T12:18:55.271Z,97867.97
2022-10-14T12:21:38.322Z,97851.91
2022-10-14T12:24:14.875Z,97853.00
2022-10-14T12:26:58.784Z,97855.56
2022-10-14T12:29:34.994Z,97849.84
2022-10-14T12:32:24.368Z,97856.59
2022-10-14T12:34:56.915Z,97842.56
2022-10-14T12:37:52.977Z,97842.06
2022-10-14T12:40:36.619Z,97832.16
2022-10-14T12:43:21.620Z,97832.09
2022-10-14T12:46:12.346Z,97829.94
2022-10-14T12:48:53.095Z,97831.59
2022-10-14T12:51:28.388Z,97836.06
2022-10-14T12:54:10.467Z,97833.38
2022-10-14T12:56:47.625Z,97826.28
2022-10-14T12:59:30.591Z,97821.78
2022-10-14T13:02:05.811Z,97819.28
2022-10-14T13:04:36.579Z,97822.41
2022-10-14T13:07:42.121Z,97821.59
2022-10-14T13:10:48.453Z,97817.72
2022-10-14T13:13:53.573Z,97813.59
2022-10-14T13:17:05.716Z,97817.75
2022-10-14T13:19:47.727Z,97818.03
2022-10-14T13:22:42.433Z,97814.63
2022-10-14T13:25:31.037Z,97812.84
2022-10-14T13:28:25.148Z,97818.75
2022-10-14T13:31:07.453Z,97805.59
2022-10-14T13:33:47.269Z,97807.13
2022-10-14T13:36:26.450Z,97812.31
2022-10-14T13:39:02.715Z,97807.38
2022-10-14T13:41:34.732Z,97809.97
2022-10-14T13:44:05.597Z,97807.91
2022-10-14T13:46:42.181Z,97816.13
2022-10-14T13:49:20.473Z,97816.91
2022-10-14T13:51:55.808Z,97825.94
2022-10-14T13:54:28.253Z,97812.00
2022-10-14T13:57:43.098Z,97813.78
2022-10-14T14:02:51.820Z,97813.38
2022-10-14T14:05:37.865Z,97807.16
2022-10-14T14:11:18.928Z,97804.78
2022-10-14T14:14:01.069Z,97803.25
2022-10-14T14:16:39.459Z,97803.50
2022-10-14T14:19:21.852Z,97800.91
2022-10-14T14:22:07.698Z,97796.47
2022-10-14T14:24:37.923Z,97782.94
2022-10-14T14:27:08.423Z,97778.22
2022-10-14T14:29:39.183Z,97786.06
2022-10-14T14:32:09.516Z,97773.13
2022-10-14T14:34:42.140Z,97778.56
2022-10-14T14:37:55.085Z,97775.97
2022-10-14T14:40:22.560Z,97781.91
2022-10-14T14:42:56.688Z,97777.50
2022-10-14T14:45:30.585Z,97783.66
2022-10-14T14:48:06.979Z,97790.59
2022-10-14T14:50:43.022Z,97790.59
2022-10-14T14:53:21.456Z,97786.25
2022-10-14T14:56:11.857Z,97781.53
2022-10-14T14:58:52.409Z,97778.16
2022-10-14T15:01:26.959Z,97770.66
2022-10-14T15:04:13.196Z,97762.25
2022-10-14T15:06:51.110Z,97779.13
2022-10-14T15:09:39.530Z,97771.72
2022-10-14T15:12:20.638Z,97771.47
2022-10-14T15:14:53.195Z,97784.41
2022-10-14T15:17:34.536Z,97778.88
2022-10-14T15:20:35.097Z,97779.13
2022-10-14T15:23:05.220Z,97776.06
2022-10-14T15:25:35.670Z,97784.34
2022-10-14T15:28:06.434Z,97778.25
2022-10-14T15:30:51.864Z,97791.75
2022-10-14T15:33:24.881Z,97779.28
2022-10-14T15:36:02.908Z,97782.56
2022-10-14T15:38:33.520Z,97779.97
2022-10-14T15:41:07.675Z,97777.22
2022-10-14T15:43:39.970Z,97773.03
2022-10-14T15:46:29.033Z,97771.00
2022-10-14T15:49:23.105Z,97766.72
2022-10-14T15:51:56.046Z,97769.91
2022-10-14T15:54:27.704Z,97763.81
2022-10-14T15:56:58.556Z,97760.97
2022-10-14T15:59:29.124Z,97759.41
2022-10-14T16:01:59.856Z,97759.66
2022-10-14T16:04:31.343Z,97753.53
2022-10-14T16:07:03.935Z,97757.44
2022-10-14T16:09:33.950Z,97760.94
2022-10-14T16:12:04.978Z,97754.16
2022-10-14T16:14:35.022Z,97754.38
2022-10-14T16:17:05.620Z,97751.53
2022-10-14T16:19:36.045Z,97755.44
2022-10-14T16:22:12.522Z,97766.50
2022-10-14T16:24:43.017Z,97756.94
2022-10-14T16:27:13.083Z,97758.94
2022-10-14T16:29:43.198Z,97763.50
2022-10-14T16:32:15.413Z,97760.41
2022-10-14T16:34:45.626Z,97755.38
2022-10-14T16:37:18.228Z,97758.19
2022-10-14T16:39:49.619Z,97760.75
2022-10-14T16:42:19.725Z,97757.03
2022-10-14T16:44:49.759Z,97758.38
2022-10-14T16:47:20.739Z,97754.38
2022-10-14T16:49:53.605Z,97749.56
2022-10-14T16:52:26.675Z,97751.56
2022-10-14T16:54:57.032Z,97753.94
2022-10-14T16:57:27.177Z,97757.13
2022-10-14T16:59:57.265Z,97758.72
2022-10-14T17:02:31.957Z,97761.84
2022-10-14T17:05:02.027Z,97756.72
2022-10-14T17:07:34.639Z,97768.97
2022-10-14T17:10:05.181Z,97771.00
2022-10-14T17:12:35.653Z,97766.66
2022-10-14T17:15:05.813Z,97759.63
2022-10-14T17:17:36.071Z,97767.31
2022-10-14T17:20:06.539Z,97763.06
2022-10-14T17:22:39.323Z,97760.50
2022-10-14T17:25:11.285Z,97749.59
2022-10-14T17:27:41.561Z,97751.34
2022-10-14T17:30:13.293Z,97756.59
2022-10-14T17:32:43.297Z,97754.47
2022-10-14T17:35:15.225Z,97747.34
2022-10-14T17:37:49.231Z,97743.22
2022-10-14T17:40:19.497Z,97735.97
2022-10-14T17:42:50.507Z,97743.56
2022-10-14T17:45:20.736Z,97740.91
2022-10-14T17:47:50.810Z,97750.72
2022-10-14T17:50:22.787Z,97750.72
2022-10-14T17:52:58.845Z,97744.56
2022-10-14T17:55:28.973Z,97747.81
2022-10-14T17:57:59.020Z,97740.53
2022-10-14T18:00:29.694Z,97750.25
2022-10-14T18:02:59.752Z,97742.31
2022-10-14T18:05:30.627Z,97742.44
2022-10-14T18:08:03.296Z,97750.56
2022-10-14T18:10:33.560Z,97751.00
2022-10-14T18:13:04.015Z,97746.44
2022-10-14T18:15:36.387Z,97741.88
2022-10-14T18:18:07.205Z,97746.22
2022-10-14T18:20:39.653Z,97746.66
2022-10-14T18:23:12.657Z,97747.13
2022-10-14T18:25:42.727Z,97737.63
2022-10-14T18:28:12.961Z,97741.97
2022-10-14T18:30:43.035Z,97737.31
2022-10-14T18:33:13.096Z,97736.41
2022-10-14T18:35:46.394Z,97738.97
2022-10-14T18:38:21.372Z,97732.53
2022-10-14T18:43:30.396Z,97728.47
2022-10-14T18:46:13.789Z,97725.78
2022-10-14T18:48:46.809Z,97720.91
2022-10-14T18:51:18.939Z,97716.09
2022-10-14T18:53:51.908Z,97715.66
2022-10-14T18:56:25.225Z,97709.97
2022-10-14T18:58:59.648Z,97708.28
2022-10-14T19:01:30.452Z,97698.34
2022-10-14T19:04:01.981Z,97703.34
2022-10-14T19:06:32.939Z,97692.91
2022-10-14T19:09:06.717Z,97688.75
2022-10-14T19:11:37.729Z,97687.41
2022-10-14T19:14:08.041Z,97677.94
2022-10-14T19:16:40.849Z,97673.25
2022-10-14T19:19:16.690Z,97673.47
2022-10-14T19:21:48.578Z,97668.56
2022-10-14T19:24:21.950Z,97669.13
2022-10-14T19:26:54.223Z,97664.66
2022-10-14T19:29:24.778Z,97663.88
2022-10-14T19:31:55.296Z,97663.31
2022-10-14T19:34:27.207Z,97654.09
2022-10-14T19:37:00.131Z,97648.72
2022-10-14T19:39:32.917Z,97654.41
2022-10-14T19:42:03.088Z,97653.38
2022-10-14T19:47:23.521Z,97641.91
2022-10-14T19:49:53.753Z,97646.44
2022-10-14T19:52:23.811Z,97637.00
2022-10-14T19:54:56.444Z,97638.34
2022-10-14T19:57:26.643Z,97636.00
2022-10-14T19:59:56.707Z,97630.22
2022-10-14T20:02:26.979Z,97627.88
2022-10-14T20:04:57.015Z,97623.06
2022-10-14T20:07:27.163Z,97624.88
2022-10-14T20:10:02.015Z,97620.66
2022-10-14T20:12:33.124Z,97615.28
2022-10-14T20:15:03.233Z,97614.06
2022-10-14T20:17:33.596Z,97614.75
2022-10-14T20:20:03.654Z,97614.84
2022-10-14T20:22:35.024Z,97609.72
2022-10-14T20:25:09.015Z,97612.41
2022-10-14T20:27:39.265Z,97604.53
2022-10-14T20:30:11.368Z,97600.31
2022-10-14T20:32:41.413Z,97594.84
2022-10-14T20:35:15.015Z,97596.59
2022-10-14T20:37:45.346Z,97593.06
2022-10-14T20:40:18.681Z,97590.72
2022-10-14T20:42:48.739Z,97589.03
2022-10-14T20:45:19.305Z,97590.19
2022-10-14T20:47:53.760Z,97590.38
2022-10-14T20:50:24.390Z,97590.06
2022-10-14T20:52:54.464Z,97581.59
2022-10-14T20:55:27.134Z,97583.84
2022-10-14T20:57:57.389Z,97576.25
2022-10-14T21:00:27.544Z,97579.59
2022-10-14T21:02:57.651Z,97575.13
2022-10-14T21:05:27.931Z,97570.59
2022-10-14T21:07:58.055Z,97569.00
2022-10-14T21:10:30.636Z,97567.66
2022-10-14T21:13:00.714Z,97559.00
2022-10-14T21:15:31.430Z,97559.31
2022-10-14T21:18:01.491Z,97556.66
2022-10-14T21:20:31.654Z,97558.53
2022-10-14T21:23:01.719Z,97562.78
2022-10-14T21:25:34.374Z,97550.50
2022-10-14T21:28:04.440Z,97542.91
2022-10-14T21:30:34.607Z,97548.84
2022-10-14T21:33:04.751Z,97537.72
2022-10-14T21:35:34.800Z,97535.38
2022-10-14T21:38:04.899Z,97539.59
2022-10-14T21:40:37.572Z,97527.56
2022-10-14T21:43:07.631Z,97525.31
2022-10-14T21:45:37.691Z,97518.66
2022-10-14T21:48:08.598Z,97522.75
2022-10-14T21:50:38.668Z,97517.63
2022-10-14T21:53:11.337Z,97513.28
2022-10-14T21:55:46.499Z,97509.50
2022-10-14T21:58:16.771Z,97497.31
2022-10-14T22:00:46.827Z,97508.78
2022-10-14T22:03:17.768Z,97513.38
2022-10-14T22:05:47.957Z,97496.84
2022-10-14T22:08:23.001Z,97489.88
2022-10-14T22:10:55.647Z,97486.44
2022-10-14T22:13:25.735Z,97484.28
2022-10-14T22:15:56.285Z,97481.63
2022-10-14T22:18:27.039Z,97482.28
2022-10-14T22:21:06.534Z,97486.06
2022-10-14T22:23:40.145Z,97484.28
2022-10-14T22:26:16.854Z,97474.03
2022-10-14T22:28:47.277Z,97482.19
2022-10-14T22:31:20.935Z,97473.81
2022-10-14T22:33:52.788Z,97471.38
2022-10-14T22:36:28.024Z,97469.72
2022-10-14T22:39:01.236Z,97461.47
2022-10-14T22:41:35.648Z,97465.47
2022-10-14T22:44:08.696Z,97466.94
2022-10-14T22:46:41.680Z,97464.94
2022-10-14T22:49:12.038Z,97459.56
2022-10-14T22:51:43.119Z,97457.66
2022-10-14T22:54:14.144Z,97446.97
2022-10-14T22:56:46.772Z,97444.50
2022-10-14T22:59:16.969Z,97446.34
2022-10-14T23:01:46.976Z,97439.22
2022-10-14T23:04:17.015Z,97442.59
2022-10-14T23:06:49.757Z,97432.81
2022-10-14T23:09:20.115Z,97428.72
2022-10-14T23:11:52.970Z,97432.13
2022-10-14T23:14:22.991Z,97427.00
2022-10-14T23:16:53.040Z,97431.91
2022-10-14T23:19:23.156Z,97425.59
2022-10-14T23:21:53.197Z,97428.25
2022-10-14T23:24:23.233Z,97421.94
2022-10-14T23:26:55.944Z,97420.41
2022-10-14T23:29:25.974Z,97413.50
2022-10-14T23:31:56.902Z,97420.88
2022-10-14T23:34:26.905Z,97418.63
2022-10-14T23:36:57.154Z,97412.13
2022-10-14T23:39:27.207Z,97413.69
2022-10-14T23:42:00.230Z,97412.34
2022-10-14T23:44:31.665Z,97415.47
2022-10-14T23:47:01.989Z,97413.91
2022-10-14T23:49:32.035Z,97408.78
2022-10-14T23:52:02.101Z,97403.09
2022-10-14T23:54:32.170Z,97406.00
2022-10-14T23:57:04.785Z,97400.31
2022-10-14T23:59:34.799Z,97401.72
